Time;durP1;ratioP1;P1;durP2;ratioP2;P2;SDS_P1;SDS_P2;PMS_P1;PMS_P2;Temp;Humidity;BMP_temperature;BMP_pressure;BME280_temperature;BME280_humidity;BME280_pressure;Samples;Min_cycle;Max_cycle;Signal;HPM_P1;HPM_P2
2023/08/25 00:00:37;;;;;;;6.35;5.75;;;22.10;99.90;;;;;;4974707;28;20027;-90
2023/08/25 00:03:03;;;;;;;10.20;6.00;;;22.10;99.90;;;;;;4991062;28;20031;-91
2023/08/25 00:05:29;;;;;;;8.05;6.03;;;22.10;99.90;;;;;;4974612;28;20467;-90
2023/08/25 00:07:54;;;;;;;6.35;5.75;;;22.00;99.90;;;;;;4974782;28;20037;-90
2023/08/25 00:10:22;;;;;;;6.32;5.68;;;22.00;99.90;;;;;;4974599;28;20026;-90
2023/08/25 00:12:49;;;;;;;6.18;5.57;;;22.00;99.90;;;;;;4975856;28;20047;-89
2023/08/25 00:15:15;;;;;;;7.30;5.90;;;22.00;99.90;;;;;;4975741;28;20027;-90
2023/08/25 00:17:40;;;;;;;6.68;6.07;;;22.00;99.90;;;;;;4979181;28;20022;-89
2023/08/25 00:20:10;;;;;;;6.47;5.85;;;21.90;99.90;;;;;;4977985;28;20089;-89
2023/08/25 00:22:38;;;;;;;8.32;5.82;;;21.90;99.90;;;;;;4994021;28;20053;-89
2023/08/25 00:25:05;;;;;;;6.80;6.10;;;21.90;99.90;;;;;;4977795;28;20039;-91
2023/08/25 00:27:30;;;;;;;6.22;5.63;;;21.90;99.90;;;;;;4994004;28;20022;-90
2023/08/25 00:29:56;;;;;;;7.82;7.03;;;21.80;99.90;;;;;;4994311;28;20082;-89
2023/08/25 00:32:22;;;;;;;6.97;6.28;;;21.80;99.90;;;;;;4977499;28;20030;-89
2023/08/25 00:34:47;;;;;;;7.78;6.97;;;21.80;99.90;;;;;;4977929;28;20102;-90
2023/08/25 00:37:13;;;;;;;7.88;6.47;;;21.70;99.90;;;;;;4977927;28;20063;-90
2023/08/25 00:39:39;;;;;;;8.10;7.28;;;21.70;99.90;;;;;;4978869;28;20050;-90
2023/08/25 00:42:05;;;;;;;7.25;6.55;;;21.70;99.90;;;;;;4977304;28;20061;-90
2023/08/25 00:44:30;;;;;;;7.30;6.63;;;21.70;99.90;;;;;;4977895;28;20554;-90
2023/08/25 00:46:57;;;;;;;7.20;6.35;;;21.70;99.90;;;;;;4993800;28;20043;-90
2023/08/25 00:49:24;;;;;;;7.25;6.45;;;21.60;99.90;;;;;;4978149;28;20240;-90
2023/08/25 00:51:51;;;;;;;7.53;6.72;;;21.60;99.90;;;;;;5002557;28;20146;-84
2023/08/25 00:54:18;;;;;;;6.88;6.28;;;21.60;99.90;;;;;;5000504;28;20007;-90
2023/08/25 00:56:46;;;;;;;7.60;6.80;;;21.50;99.90;;;;;;5000083;28;20042;-90
2023/08/25 00:59:12;;;;;;;6.85;6.25;;;21.50;99.90;;;;;;5007782;28;20041;-90
2023/08/25 01:01:37;;;;;;;7.00;6.32;;;21.50;99.90;;;;;;4991305;28;20039;-90
2023/08/25 01:04:03;;;;;;;7.25;6.35;;;21.50;99.90;;;;;;5000101;28;20391;-89
2023/08/25 01:06:29;;;;;;;8.40;6.45;;;21.50;99.90;;;;;;4993296;28;20130;-89
2023/08/25 01:08:55;;;;;;;7.70;6.93;;;21.40;99.90;;;;;;4976876;28;20023;-90
2023/08/25 01:11:55;;;;;;;8.55;7.75;;;21.40;99.90;;;;;;4976654;28;20491;-88
2023/08/25 01:14:41;;;;;;;8.48;7.68;;;21.40;99.90;;;;;;4978355;28;20552;-90
2023/08/25 01:17:42;;;;;;;8.93;8.02;;;21.40;99.90;;;;;;4978114;28;20027;-90
2023/08/25 01:20:09;;;;;;;8.50;7.30;;;21.30;99.90;;;;;;4945737;28;20472;-91
2023/08/25 01:23:00;;;;;;;8.85;7.95;;;21.30;99.90;;;;;;4976886;28;20031;-88
2023/08/25 01:25:32;;;;;;;8.35;7.32;;;21.30;99.90;;;;;;4978059;28;20034;-89
2023/08/25 01:27:59;;;;;;;8.95;8.10;;;21.30;99.90;;;;;;4992234;28;20062;-89
2023/08/25 01:30:27;;;;;;;9.63;8.73;;;21.30;99.90;;;;;;4976515;28;20526;-91
2023/08/25 01:32:53;;;;;;;9.52;8.52;;;21.30;99.90;;;;;;4992909;28;20062;-86
2023/08/25 01:35:30;;;;;;;10.20;9.20;;;21.30;99.90;;;;;;4992759;28;20039;-90
2023/08/25 01:38:17;;;;;;;9.82;8.85;;;21.20;99.90;;;;;;4976499;28;20078;-90
2023/08/25 01:41:08;;;;;;;10.27;9.27;;;21.20;99.90;;;;;;4976475;28;20022;-89
2023/08/25 01:43:39;;;;;;;10.48;9.25;;;21.20;99.90;;;;;;4976859;28;20490;-89
2023/08/25 01:46:09;;;;;;;10.15;9.27;;;21.30;99.90;;;;;;4992730;28;20081;-91
2023/08/25 01:48:37;;;;;;;11.23;10.23;;;21.30;99.90;;;;;;4976567;28;20475;-90
2023/08/25 01:51:02;;;;;;;11.57;10.50;;;21.30;99.90;;;;;;4976378;28;20541;-90
2023/08/25 01:53:32;;;;;;;12.35;10.98;;;21.30;99.90;;;;;;4994726;28;20027;-90
2023/08/25 01:55:57;;;;;;;11.02;10.00;;;21.30;99.90;;;;;;4977869;28;20037;-89
2023/08/25 01:58:26;;;;;;;11.85;10.75;;;21.30;99.90;;;;;;4977321;28;20050;-92
2023/08/25 02:00:52;;;;;;;12.85;11.55;;;21.40;99.90;;;;;;4977454;28;20478;-90
2023/08/25 02:03:18;;;;;;;12.52;11.30;;;21.30;99.90;;;;;;4992473;28;20026;-90
2023/08/25 02:05:43;;;;;;;11.77;10.52;;;21.30;99.90;;;;;;4992539;28;20105;-90
2023/08/25 02:08:09;;;;;;;11.93;10.73;;;21.40;99.90;;;;;;4976416;28;20027;-90
2023/08/25 02:10:38;;;;;;;11.93;10.52;;;21.40;99.90;;;;;;4977470;28;20486;-91
2023/08/25 02:13:04;;;;;;;11.80;10.68;;;21.40;99.90;;;;;;4975848;28;20149;-90
2023/08/25 02:15:29;;;;;;;14.50;10.73;;;21.40;99.90;;;;;;4976163;28;20088;-91
2023/08/25 02:17:57;;;;;;;12.20;10.93;;;21.40;99.90;;;;;;4992944;28;20027;-90
2023/08/25 02:20:31;;;;;;;13.35;12.05;;;21.40;99.90;;;;;;4976927;28;20471;-91
2023/08/25 02:26:38;;;;;;;11.68;10.57;;;21.50;99.90;;;;;;4938021;29;20042;-90
2023/08/25 02:29:05;;;;;;;11.52;10.38;;;21.50;99.90;;;;;;4973943;28;20055;-90
2023/08/25 02:31:31;;;;;;;13.55;11.52;;;21.40;99.90;;;;;;4977290;28;20101;-91
2023/08/25 02:34:00;;;;;;;12.10;10.98;;;21.50;99.90;;;;;;4993230;28;20130;-90
2023/08/25 02:36:55;;;;;;;12.35;11.15;;;21.50;99.90;;;;;;4977334;28;20031;-91
2023/08/25 02:39:24;;;;;;;11.90;10.75;;;21.50;99.90;;;;;;4993288;28;20027;-90
2023/08/25 02:41:52;;;;;;;12.00;10.85;;;21.50;99.90;;;;;;4979956;28;20054;-90
2023/08/25 02:44:26;;;;;;;12.32;11.00;;;21.50;99.90;;;;;;4981006;28;20036;-90
2023/08/25 02:46:51;;;;;;;12.65;11.30;;;21.50;99.90;;;;;;4984240;28;20029;-90
2023/08/25 02:49:20;;;;;;;13.15;11.77;;;21.50;99.90;;;;;;4991303;28;20090;-90
2023/08/25 02:51:46;;;;;;;13.57;11.82;;;21.60;99.90;;;;;;4996602;28;20027;-90
2023/08/25 02:54:11;;;;;;;12.98;11.55;;;21.50;99.90;;;;;;4997605;28;20027;-90
2023/08/25 02:56:40;;;;;;;12.95;11.70;;;21.60;99.90;;;;;;4996562;28;20019;-90
2023/08/25 02:59:06;;;;;;;14.77;13.05;;;21.60;99.90;;;;;;5000311;28;20038;-90
2023/08/25 03:01:33;;;;;;;14.63;12.85;;;21.60;99.90;;;;;;4983607;28;20026;-90
2023/08/25 03:03:58;;;;;;;14.38;12.70;;;21.60;99.90;;;;;;4995406;28;20027;-90
2023/08/25 03:06:24;;;;;;;15.13;13.73;;;21.60;99.90;;;;;;4975681;28;20031;-89
2023/08/25 03:08:53;;;;;;;13.73;12.45;;;21.60;99.90;;;;;;4976661;28;20097;-90
2023/08/25 03:11:18;;;;;;;13.57;12.20;;;21.60;99.90;;;;;;4975575;28;20027;-89
2023/08/25 03:13:44;;;;;;;14.52;12.95;;;21.60;99.90;;;;;;4975417;28;20474;-91
2023/08/25 03:16:12;;;;;;;14.38;12.98;;;21.60;99.90;;;;;;4991572;28;20085;-90
2023/08/25 03:18:40;;;;;;;14.13;12.75;;;21.70;99.90;;;;;;4975121;28;20151;-90
2023/08/25 03:21:08;;;;;;;15.23;13.43;;;21.70;99.90;;;;;;4975166;28;20037;-89
2023/08/25 03:23:35;;;;;;;14.63;13.25;;;21.60;99.90;;;;;;4991707;28;20035;-91
2023/08/25 03:26:08;;;;;;;14.85;13.30;;;21.70;99.90;;;;;;4975274;28;20034;-90
2023/08/25 03:28:34;;;;;;;17.50;14.13;;;21.70;99.90;;;;;;4976488;28;20038;-90
2023/08/25 03:31:00;;;;;;;16.55;14.80;;;21.70;99.90;;;;;;4976089;28;20019;-90
2023/08/25 03:33:25;;;;;;;16.00;14.50;;;21.70;99.90;;;;;;4975185;28;20034;-91
2023/08/25 03:35:51;;;;;;;16.25;14.57;;;21.70;99.90;;;;;;4975057;28;20030;-90
2023/08/25 03:38:17;;;;;;;16.65;14.85;;;21.70;99.90;;;;;;4975738;28;20027;-91
2023/08/25 03:40:43;;;;;;;15.75;14.15;;;21.70;99.90;;;;;;4991656;28;20034;-91
2023/08/25 03:43:08;;;;;;;16.17;14.63;;;21.70;99.90;;;;;;4975542;28;20468;-91
2023/08/25 03:45:37;;;;;;;15.98;14.48;;;21.70;99.90;;;;;;4975531;28;20462;-91
2023/08/25 03:48:03;;;;;;;16.60;14.90;;;21.70;99.90;;;;;;4974980;28;20035;-90
2023/08/25 03:50:29;;;;;;;16.25;14.65;;;21.70;99.90;;;;;;4975885;28;20026;-90
2023/08/25 03:52:55;;;;;;;17.10;15.30;;;21.70;99.90;;;;;;4995185;28;20031;-91
2023/08/25 03:55:23;;;;;;;16.15;14.52;;;21.70;99.90;;;;;;4978580;28;20030;-91
2023/08/25 03:57:51;;;;;;;16.42;14.82;;;21.70;99.90;;;;;;4978652;28;20050;-91
2023/08/25 04:00:17;;;;;;;16.83;15.32;;;21.80;99.90;;;;;;4994716;28;20033;-91
2023/08/25 04:02:43;;;;;;;17.17;15.48;;;21.70;99.90;;;;;;4980074;28;20046;-90
2023/08/25 04:05:10;;;;;;;16.52;14.93;;;21.80;99.90;;;;;;4979906;28;20469;-91
2023/08/25 04:07:35;;;;;;;17.70;15.95;;;21.80;99.90;;;;;;4979309;28;20066;-92
2023/08/25 04:10:03;;;;;;;17.95;16.25;;;21.80;99.90;;;;;;4981187;28;20038;-91
2023/08/25 04:12:29;;;;;;;17.05;15.30;;;21.80;99.90;;;;;;4997341;28;20062;-90
2023/08/25 04:14:55;;;;;;;16.92;15.23;;;21.80;99.90;;;;;;4981953;28;20026;-91
2023/08/25 04:17:23;;;;;;;17.23;15.43;;;21.80;99.90;;;;;;4979050;28;20443;-90
2023/08/25 04:19:49;;;;;;;16.50;14.88;;;21.80;99.90;;;;;;4978592;28;20054;-91
2023/08/25 04:22:15;;;;;;;16.02;14.57;;;21.80;99.90;;;;;;4978817;28;20038;-91
2023/08/25 04:24:40;;;;;;;16.33;14.75;;;21.80;99.90;;;;;;4978254;28;20023;-90
2023/08/25 04:27:07;;;;;;;15.70;14.20;;;21.80;99.90;;;;;;4994357;28;20039;-91
2023/08/25 04:29:33;;;;;;;18.25;16.40;;;21.80;99.90;;;;;;4978341;28;20220;-93
2023/08/25 04:31:59;;;;;;;17.60;15.88;;;21.80;99.90;;;;;;4978539;28;20029;-90
2023/08/25 04:34:24;;;;;;;17.27;15.57;;;21.80;99.90;;;;;;4979683;28;20023;-92
2023/08/25 04:36:56;;;;;;;17.10;15.40;;;21.90;99.90;;;;;;4979329;28;20364;-91
2023/08/25 04:39:24;;;;;;;17.40;15.60;;;21.80;99.90;;;;;;4978988;28;20073;-92
2023/08/25 04:41:50;;;;;;;18.05;16.40;;;21.80;99.90;;;;;;4994172;28;20041;-91
2023/08/25 04:44:16;;;;;;;17.90;16.13;;;21.90;99.90;;;;;;4978653;28;20019;-91
2023/08/25 04:46:42;;;;;;;18.80;16.83;;;21.90;99.90;;;;;;4978956;28;20030;-92
2023/08/25 04:49:09;;;;;;;19.15;16.23;;;21.90;99.90;;;;;;4996533;28;20035;-91
2023/08/25 04:51:35;;;;;;;16.23;14.68;;;21.90;99.90;;;;;;4983142;28;20031;-92
2023/08/25 04:54:00;;;;;;;16.98;15.35;;;21.90;99.90;;;;;;5000127;28;20031;-91
2023/08/25 04:56:26;;;;;;;16.52;14.90;;;21.90;99.90;;;;;;4999944;28;20019;-91
2023/08/25 04:58:52;;;;;;;19.20;15.60;;;21.90;99.90;;;;;;4989332;28;20031;-92
2023/08/25 05:01:22;;;;;;;17.85;16.15;;;21.90;99.90;;;;;;4998376;28;20038;-90
2023/08/25 05:03:52;;;;;;;15.40;13.95;;;21.90;99.90;;;;;;4982294;28;20029;-92
2023/08/25 05:06:18;;;;;;;15.40;14.00;;;21.90;99.90;;;;;;4979613;28;20030;-90
2023/08/25 05:08:44;;;;;;;16.33;14.73;;;21.90;99.90;;;;;;4979761;28;20058;-91
2023/08/25 05:11:10;;;;;;;17.30;14.65;;;21.90;99.90;;;;;;4982807;28;20027;-92
2023/08/25 05:13:36;;;;;;;15.93;14.07;;;21.90;99.90;;;;;;4981040;28;20077;-92
2023/08/25 05:16:04;;;;;;;15.48;13.88;;;22.00;99.90;;;;;;4985915;28;20038;-89
2023/08/25 05:18:31;;;;;;;16.88;14.57;;;21.90;99.90;;;;;;4980823;28;20463;-89
2023/08/25 05:21:01;;;;;;;15.35;13.85;;;21.90;99.90;;;;;;4995710;28;20086;-89
2023/08/25 05:23:27;;;;;;;15.85;14.30;;;22.00;99.90;;;;;;4978135;28;20026;-90
2023/08/25 05:25:52;;;;;;;15.75;14.18;;;22.00;99.90;;;;;;4979504;28;20026;-90
2023/08/25 05:28:18;;;;;;;16.15;14.57;;;22.00;99.90;;;;;;4977754;28;20117;-89
2023/08/25 05:30:50;;;;;;;15.98;14.38;;;22.00;99.90;;;;;;4977058;28;20039;-89
2023/08/25 05:33:16;;;;;;;16.10;14.50;;;22.00;99.90;;;;;;4976666;28;20178;-90
2023/08/25 05:35:41;;;;;;;15.30;13.70;;;22.00;99.90;;;;;;4976269;28;20086;-90
2023/08/25 05:38:07;;;;;;;15.23;13.73;;;22.00;99.90;;;;;;4976727;28;20250;-90
2023/08/25 05:40:33;;;;;;;12.95;11.75;;;22.00;99.90;;;;;;4978802;28;20109;-89
2023/08/25 05:42:58;;;;;;;13.63;12.38;;;22.00;99.90;;;;;;4977187;28;20054;-90
2023/08/25 05:45:24;;;;;;;14.77;13.48;;;22.10;99.90;;;;;;4977054;28;20081;-90
2023/08/25 05:47:53;;;;;;;15.18;13.68;;;22.00;99.90;;;;;;4976768;28;20053;-90
2023/08/25 05:50:18;;;;;;;14.85;13.27;;;22.10;99.90;;;;;;4992997;28;20027;-90
2023/08/25 05:52:45;;;;;;;15.35;13.77;;;22.10;99.90;;;;;;4976705;28;20114;-87
2023/08/25 05:55:14;;;;;;;16.10;14.60;;;22.10;99.90;;;;;;4976732;28;20498;-90
2023/08/25 05:57:40;;;;;;;16.88;15.20;;;22.10;99.90;;;;;;4992574;28;20058;-90
2023/08/25 06:00:07;;;;;;;18.30;16.48;;;22.10;99.90;;;;;;4977418;28;20070;-89
2023/08/25 06:02:33;;;;;;;17.65;15.77;;;22.10;99.90;;;;;;4975953;28;20030;-90
2023/08/25 06:04:59;;;;;;;18.77;16.33;;;22.10;99.90;;;;;;4976660;28;20023;-90
2023/08/25 06:07:25;;;;;;;17.30;15.77;;;22.10;99.90;;;;;;4992551;28;20038;-89
2023/08/25 06:09:51;;;;;;;18.60;16.80;;;22.10;99.90;;;;;;4976230;28;20538;-90
2023/08/25 06:12:17;;;;;;;18.02;16.30;;;22.20;99.90;;;;;;4975352;28;20047;-89
2023/08/25 06:14:43;;;;;;;18.70;15.73;;;22.20;99.90;;;;;;4975399;28;20035;-89
2023/08/25 06:17:09;;;;;;;15.90;14.25;;;22.20;99.90;;;;;;4975993;28;20041;-89
2023/08/25 06:19:36;;;;;;;17.38;14.45;;;22.10;99.90;;;;;;4975327;28;20463;-89
2023/08/25 06:22:02;;;;;;;15.25;13.75;;;22.20;99.90;;;;;;4975647;28;20120;-90
2023/08/25 06:24:28;;;;;;;17.38;15.65;;;22.20;99.90;;;;;;4975248;28;20093;-90
2023/08/25 06:26:54;;;;;;;17.25;15.45;;;22.20;99.90;;;;;;4975810;28;20034;-90
2023/08/25 06:29:19;;;;;;;17.65;15.85;;;22.20;99.90;;;;;;4976104;28;20037;-90
2023/08/25 06:31:45;;;;;;;18.30;16.52;;;22.20;99.90;;;;;;4976614;28;20030;-88
2023/08/25 06:34:11;;;;;;;18.08;16.27;;;22.20;99.90;;;;;;4976481;28;20037;-91
2023/08/25 06:36:37;;;;;;;19.00;16.95;;;22.20;99.90;;;;;;4976143;28;20031;-92
2023/08/25 06:39:03;;;;;;;21.02;18.10;;;22.30;99.90;;;;;;4992867;28;20114;-92
2023/08/25 06:41:29;;;;;;;19.52;17.13;;;22.30;99.90;;;;;;4976334;28;20130;-91
2023/08/25 06:43:59;;;;;;;17.52;15.85;;;22.20;99.90;;;;;;4992447;28;20062;-91
2023/08/25 06:46:25;;;;;;;17.98;16.13;;;22.20;99.90;;;;;;4976926;28;20027;-91
2023/08/25 06:48:54;;;;;;;17.38;15.57;;;22.30;99.90;;;;;;4976822;28;20039;-91
2023/08/25 06:51:19;;;;;;;17.45;15.60;;;22.30;99.90;;;;;;4995838;28;20030;-91
2023/08/25 06:53:45;;;;;;;16.73;15.13;;;22.30;99.90;;;;;;4991599;28;20015;-91
2023/08/25 06:56:11;;;;;;;19.05;15.48;;;22.30;99.90;;;;;;4997681;28;20031;-91
2023/08/25 06:58:36;;;;;;;16.90;15.13;;;22.30;99.90;;;;;;4993349;28;20037;-91
2023/08/25 07:01:02;;;;;;;18.00;15.35;;;22.30;99.90;;;;;;4996699;28;20027;-91
2023/08/25 07:03:28;;;;;;;16.88;13.90;;;22.30;99.90;;;;;;4979315;28;20027;-91
2023/08/25 07:05:58;;;;;;;16.38;14.77;;;22.30;99.90;;;;;;4992438;28;20130;-90
2023/08/25 07:08:25;;;;;;;15.83;14.23;;;22.30;99.90;;;;;;4975886;28;20042;-91
2023/08/25 07:10:51;;;;;;;17.90;16.10;;;22.30;99.90;;;;;;4991227;28;20242;-91
2023/08/25 07:13:17;;;;;;;17.20;15.35;;;22.30;99.90;;;;;;4974701;28;20051;-92
2023/08/25 07:15:43;;;;;;;18.67;16.63;;;22.30;99.90;;;;;;4991424;28;20502;-91
2023/08/25 07:18:09;;;;;;;18.52;16.63;;;22.30;99.90;;;;;;4974161;28;20038;-84
2023/08/25 07:20:35;;;;;;;20.92;16.50;;;22.30;99.90;;;;;;4973475;28;20018;-84
2023/08/25 07:23:00;;;;;;;18.98;15.30;;;22.30;99.90;;;;;;4975194;28;20031;-84
2023/08/25 07:25:26;;;;;;;17.83;16.02;;;22.30;99.90;;;;;;4976114;28;20442;-84
2023/08/25 07:27:52;;;;;;;18.10;16.20;;;22.30;99.90;;;;;;4993722;28;20479;-82
2023/08/25 07:30:17;;;;;;;19.10;17.20;;;22.30;99.90;;;;;;4978703;28;20027;-83
2023/08/25 07:32:43;;;;;;;18.42;15.73;;;22.30;99.90;;;;;;4993687;28;20034;-84
2023/08/25 07:35:09;;;;;;;18.45;16.63;;;22.30;99.90;;;;;;4993583;28;20471;-84
2023/08/25 07:37:37;;;;;;;16.35;14.73;;;22.30;99.90;;;;;;4978884;28;20038;-83
2023/08/25 07:40:05;;;;;;;15.52;14.02;;;22.30;99.90;;;;;;4994285;28;20143;-83
2023/08/25 07:42:31;;;;;;;17.33;14.48;;;22.30;99.90;;;;;;4977291;28;20030;-83
2023/08/25 07:44:56;;;;;;;17.08;15.38;;;22.30;99.90;;;;;;4978678;28;20035;-83
2023/08/25 07:47:22;;;;;;;15.57;13.98;;;22.30;99.90;;;;;;4978306;28;20038;-84
2023/08/25 07:49:48;;;;;;;16.08;14.48;;;22.30;99.90;;;;;;4977385;28;20023;-83
2023/08/25 07:52:14;;;;;;;16.95;15.25;;;22.30;99.90;;;;;;4977248;28;20547;-83
2023/08/25 07:54:39;;;;;;;18.08;16.35;;;22.30;99.90;;;;;;4976918;28;20114;-84
2023/08/25 07:57:05;;;;;;;14.48;13.07;;;22.30;99.90;;;;;;4976768;28;20027;-84
2023/08/25 07:59:31;;;;;;;16.48;14.77;;;22.30;99.90;;;;;;4976963;28;20455;-84
2023/08/25 08:01:57;;;;;;;16.83;14.70;;;22.30;99.90;;;;;;4993428;28;20074;-84
2023/08/25 08:04:22;;;;;;;16.67;14.15;;;22.40;99.90;;;;;;4977005;28;20042;-84
2023/08/25 08:06:49;;;;;;;14.93;13.43;;;22.30;99.90;;;;;;4992857;28;20035;-84
2023/08/25 08:09:14;;;;;;;17.15;15.45;;;22.40;99.90;;;;;;4976908;28;20465;-84
2023/08/25 08:11:40;;;;;;;15.85;14.30;;;22.40;99.90;;;;;;4992939;28;20047;-83
2023/08/25 08:14:06;;;;;;;17.10;15.07;;;22.30;99.90;;;;;;4992763;28;20086;-84
2023/08/25 08:16:32;;;;;;;17.45;15.82;;;22.30;99.90;;;;;;4978348;28;20031;-84
2023/08/25 08:18:58;;;;;;;16.52;14.93;;;22.30;99.90;;;;;;4976533;28;20033;-83
2023/08/25 08:21:24;;;;;;;17.98;16.15;;;22.40;99.90;;;;;;4993173;28;20050;-84
2023/08/25 08:23:50;;;;;;;16.50;14.90;;;22.30;99.90;;;;;;4993114;28;20050;-84
2023/08/25 08:26:15;;;;;;;17.50;15.73;;;22.30;99.90;;;;;;4976689;28;20491;-84
2023/08/25 08:28:41;;;;;;;17.52;15.68;;;22.30;99.90;;;;;;4978491;28;20032;-85
2023/08/25 08:31:07;;;;;;;16.83;15.13;;;22.30;99.90;;;;;;4992965;28;20031;-84
2023/08/25 08:33:32;;;;;;;23.17;18.42;;;22.30;99.90;;;;;;4976952;28;20352;-84
2023/08/25 08:35:58;;;;;;;19.83;17.80;;;22.40;99.90;;;;;;4992793;28;20069;-84
2023/08/25 08:38:25;;;;;;;21.33;19.23;;;22.30;99.90;;;;;;4977216;28;20030;-84
2023/08/25 08:40:59;;;;;;;20.30;18.27;;;22.30;99.90;;;;;;4977729;28;20030;-85
2023/08/25 08:43:26;;;;;;;20.88;18.85;;;22.30;99.90;;;;;;4993632;28;20039;-84
2023/08/25 08:45:54;;;;;;;20.52;18.42;;;22.30;99.90;;;;;;4976606;28;20034;-84
2023/08/25 08:48:21;;;;;;;20.50;18.50;;;22.30;99.90;;;;;;4978745;28;20392;-84
2023/08/25 08:50:47;;;;;;;19.92;17.92;;;22.30;99.90;;;;;;4994220;28;20166;-84
2023/08/25 08:53:14;;;;;;;19.30;17.20;;;22.30;99.90;;;;;;4989725;28;20049;-84
2023/08/25 08:55:42;;;;;;;17.33;15.65;;;22.30;99.90;;;;;;4998621;28;20034;-85
2023/08/25 08:58:07;;;;;;;16.42;13.95;;;22.30;99.90;;;;;;4998544;28;20031;-85
2023/08/25 09:00:33;;;;;;;14.52;13.15;;;22.30;99.90;;;;;;4993606;28;20105;-85
2023/08/25 09:03:07;;;;;;;13.57;12.27;;;22.30;99.90;;;;;;4979066;28;20027;-86
2023/08/25 09:05:36;;;;;;;14.73;13.23;;;22.30;99.90;;;;;;4979876;28;20027;-85
2023/08/25 09:08:07;;;;;;;15.60;13.27;;;22.20;99.90;;;;;;4977082;28;20075;-85
2023/08/25 09:10:33;;;;;;;13.10;11.88;;;22.30;99.90;;;;;;4976169;28;20113;-84
2023/08/25 09:12:59;;;;;;;13.20;12.00;;;22.20;99.90;;;;;;4977216;28;20174;-85
2023/08/25 09:15:30;;;;;;;12.77;11.55;;;22.30;99.90;;;;;;4975934;28;20398;-85
2023/08/25 09:18:02;;;;;;;;;;;22.30;99.90;;;;;;4976322;28;20031;-83
2023/08/25 09:20:38;;;;;;;10.35;9.20;;;22.30;99.90;;;;;;4977410;28;19960;-84
2023/08/25 09:23:04;;;;;;;10.07;8.30;;;22.30;99.90;;;;;;4975577;28;20054;-85
2023/08/25 09:25:32;;;;;;;9.98;8.70;;;22.30;99.90;;;;;;4977477;28;20027;-84
2023/08/25 09:27:59;;;;;;;10.23;9.13;;;22.30;99.90;;;;;;4976981;28;20019;-85
2023/08/25 09:30:39;;;;;;;9.90;8.30;;;22.30;99.90;;;;;;4975678;28;20034;-85
2023/08/25 09:33:06;;;;;;;9.20;7.53;;;22.30;99.90;;;;;;4976573;28;20023;-85
2023/08/25 09:35:32;;;;;;;8.48;7.35;;;22.30;99.90;;;;;;4991508;28;20031;-85
2023/08/25 09:37:58;;;;;;;8.63;7.82;;;22.30;99.90;;;;;;4975382;28;20041;-85
2023/08/25 09:40:25;;;;;;;7.95;7.15;;;22.30;99.90;;;;;;4976701;28;20106;-84
2023/08/25 09:42:59;;;;;;;7.32;6.63;;;22.30;99.90;;;;;;4976409;28;20085;-85
2023/08/25 09:45:30;;;;;;;7.53;6.93;;;22.40;99.90;;;;;;4975070;28;20030;-85
2023/08/25 09:48:09;;;;;;;;;;;22.30;99.90;;;;;;4975571;28;20494;-85
2023/08/25 09:50:39;;;;;;;8.10;7.30;;;22.40;99.90;;;;;;4975246;28;19953;-83
2023/08/25 09:53:07;;;;;;;7.85;7.15;;;22.30;99.90;;;;;;4991186;28;20538;-85
2023/08/25 09:55:39;;;;;;;7.38;6.63;;;22.30;99.90;;;;;;4976604;28;20460;-85
2023/08/25 09:58:09;;;;;;;6.90;6.10;;;22.30;99.90;;;;;;4974847;28;20023;-85
2023/08/25 10:00:40;;;;;;;5.57;5.07;;;22.40;99.90;;;;;;4974581;28;20118;-85
2023/08/25 10:03:10;;;;;;;5.35;4.85;;;22.40;99.90;;;;;;4990549;28;20500;-85
2023/08/25 10:05:41;;;;;;;5.68;5.18;;;22.40;99.90;;;;;;4974378;28;20081;-85
2023/08/25 10:08:10;;;;;;;5.45;4.95;;;22.40;99.90;;;;;;4990849;28;20399;-85
2023/08/25 10:10:37;;;;;;;6.40;5.30;;;22.40;99.90;;;;;;4974942;28;20464;-85
2023/08/25 10:13:04;;;;;;;5.80;5.15;;;22.40;99.90;;;;;;4976219;28;20062;-85
2023/08/25 10:15:31;;;;;;;5.70;4.95;;;22.30;99.90;;;;;;4975234;28;20088;-85
2023/08/25 10:18:03;;;;;;;9.93;6.20;;;22.30;99.90;;;;;;4991309;28;20034;-84
2023/08/25 10:20:34;;;;;;;13.77;6.05;;;22.30;99.90;;;;;;4975214;28;20387;-86
2023/08/25 10:23:01;;;;;;;8.80;5.20;;;22.30;99.90;;;;;;4990673;28;20038;-85
2023/08/25 10:25:31;;;;;;;5.80;5.30;;;22.20;99.90;;;;;;4974673;28;20029;-85
2023/08/25 10:27:59;;;;;;;5.90;5.38;;;22.20;99.90;;;;;;4991131;28;20190;-84
2023/08/25 10:30:27;;;;;;;5.85;5.25;;;22.30;99.90;;;;;;4975108;28;20482;-85
2023/08/25 10:33:08;;;;;;;7.28;4.97;;;22.30;99.90;;;;;;4975998;28;20102;-86
2023/08/25 10:35:39;;;;;;;5.50;4.63;;;22.30;99.90;;;;;;4976499;28;20031;-85
2023/08/25 10:38:23;;;;;;;4.63;4.20;;;22.40;99.90;;;;;;4974647;28;20169;-85
2023/08/25 10:40:53;;;;;;;2.85;2.60;;;22.50;99.90;;;;;;4975897;28;20387;-85
2023/08/25 10:43:33;;;;;;;3.97;2.75;;;22.60;99.90;;;;;;4976118;28;20027;-85
2023/08/25 10:46:08;;;;;;;3.28;2.92;;;22.70;99.90;;;;;;4975662;28;20031;-85
2023/08/25 10:48:34;;;;;;;3.33;2.78;;;22.80;99.90;;;;;;4991419;28;20121;-85
2023/08/25 10:51:09;;;;;;;3.42;2.38;;;22.80;99.90;;;;;;4976131;28;20550;-85
2023/08/25 10:53:45;;;;;;;4.80;2.78;;;22.90;99.90;;;;;;4979448;28;20027;-85
2023/08/25 10:56:26;;;;;;;2.45;2.25;;;23.00;99.90;;;;;;5004856;28;20034;-85
2023/08/25 10:59:09;;;;;;;;;;;23.10;99.90;;;;;;4992644;28;20027;-84
2023/08/25 11:01:37;;;;;;;3.40;2.50;;;23.10;99.90;;;;;;4990311;28;19906;-84
2023/08/25 11:04:19;;;;;;;3.90;3.45;;;23.10;99.90;;;;;;4983254;28;20023;-85
2023/08/25 11:06:49;;;;;;;6.68;4.10;;;23.10;99.90;;;;;;4997702;28;20034;-84
2023/08/25 11:09:18;;;;;;;6.13;4.47;;;23.10;99.90;;;;;;4991801;28;20038;-83
2023/08/25 11:11:47;;;;;;;5.20;4.68;;;23.10;99.90;;;;;;4993366;28;20093;-83
2023/08/25 11:14:13;;;;;;;6.82;5.47;;;23.10;99.90;;;;;;4990748;28;20141;-84
2023/08/25 11:16:42;;;;;;;6.68;5.97;;;23.10;99.90;;;;;;4990757;28;20121;-84
2023/08/25 11:19:14;;;;;;;7.55;6.13;;;23.10;99.90;;;;;;4989986;28;20085;-84
2023/08/25 11:21:39;;;;;;;7.13;5.65;;;23.10;99.90;;;;;;4991386;28;20057;-84
2023/08/25 11:24:05;;;;;;;7.70;6.97;;;23.10;99.90;;;;;;4991471;28;20035;-91
2023/08/25 11:26:34;;;;;;;7.53;6.72;;;23.10;99.90;;;;;;4992144;28;20038;-90
2023/08/25 11:29:03;;;;;;;7.40;6.63;;;23.00;99.90;;;;;;4991966;28;20035;-90
2023/08/25 11:31:29;;;;;;;7.50;6.60;;;23.00;99.90;;;;;;4991179;28;20033;-91
2023/08/25 11:33:55;;;;;;;7.53;6.78;;;23.00;99.90;;;;;;4975167;28;20045;-92
2023/08/25 11:36:24;;;;;;;7.90;7.10;;;23.00;99.90;;;;;;4975175;28;20154;-90
2023/08/25 11:38:51;;;;;;;7.50;6.90;;;23.00;99.90;;;;;;4991000;28;20065;-92
2023/08/25 11:41:17;;;;;;;7.28;6.55;;;23.00;99.90;;;;;;4975644;28;20056;-90
2023/08/25 11:43:45;;;;;;;7.40;6.80;;;22.90;99.90;;;;;;4991000;28;20089;-91
2023/08/25 11:46:12;;;;;;;7.88;7.07;;;22.90;99.90;;;;;;4975755;28;20034;-91
2023/08/25 11:48:37;;;;;;;7.18;6.22;;;22.90;99.90;;;;;;4990859;28;20041;-92
2023/08/25 11:51:03;;;;;;;7.43;6.35;;;22.90;99.90;;;;;;4975874;28;20110;-89
2023/08/25 11:53:30;;;;;;;8.05;7.32;;;22.90;99.90;;;;;;4990816;28;20027;-91
2023/08/25 11:56:00;;;;;;;7.72;6.82;;;22.90;99.90;;;;;;4975634;28;20026;-91
2023/08/25 11:58:33;;;;;;;7.75;7.05;;;22.90;99.90;;;;;;4990881;28;20042;-90
2023/08/25 12:01:06;;;;;;;7.93;7.15;;;22.90;99.90;;;;;;4973988;28;20046;-90
2023/08/25 12:03:33;;;;;;;8.18;7.47;;;22.90;99.90;;;;;;4974864;28;20034;-91
2023/08/25 12:05:59;;;;;;;9.07;7.60;;;22.90;99.90;;;;;;4990792;28;20031;-91
2023/08/25 12:08:25;;;;;;;8.32;7.63;;;22.90;99.90;;;;;;4974915;28;20034;-91
2023/08/25 12:10:54;;;;;;;8.85;8.05;;;22.90;99.90;;;;;;4974208;28;20078;-90
2023/08/25 12:13:29;;;;;;;9.30;8.30;;;22.80;99.90;;;;;;4977894;28;20046;-90
2023/08/25 12:15:55;;;;;;;9.15;8.25;;;22.80;99.90;;;;;;4978418;28;20066;-91
2023/08/25 12:18:22;;;;;;;9.77;8.57;;;22.80;99.90;;;;;;4979270;28;20031;-91
2023/08/25 12:20:49;;;;;;;10.05;9.15;;;22.80;99.90;;;;;;4978024;28;20117;-90
2023/08/25 12:23:15;;;;;;;10.45;9.45;;;22.80;99.90;;;;;;4977811;28;20121;-91
2023/08/25 12:25:42;;;;;;;9.43;8.48;;;22.80;99.90;;;;;;4979028;28;20027;-91
2023/08/25 12:28:08;;;;;;;9.40;8.50;;;22.80;99.90;;;;;;4994311;28;20066;-88
2023/08/25 12:30:33;;;;;;;9.93;8.98;;;22.90;99.90;;;;;;4993793;28;20027;-90
2023/08/25 12:32:59;;;;;;;10.30;9.30;;;22.90;99.90;;;;;;4978867;28;20034;-90
2023/08/25 12:35:24;;;;;;;10.35;9.30;;;22.90;99.90;;;;;;4994178;28;20027;-91
2023/08/25 12:37:53;;;;;;;11.48;10.45;;;22.80;99.90;;;;;;4994413;28;20031;-90
2023/08/25 12:40:20;;;;;;;11.02;10.07;;;22.80;99.90;;;;;;4978820;28;20364;-92
2023/08/25 12:42:55;;;;;;;11.52;10.43;;;22.80;99.90;;;;;;4979136;28;20030;-90